createdAt,value
2022-08-09T00:01:52.832Z,18.17
2022-08-09T00:04:34.410Z,18.17
2022-08-09T00:07:10.479Z,18.15
2022-08-09T00:09:40.041Z,18.14
2022-08-09T00:12:22.831Z,18.14
2022-08-09T00:15:06.372Z,18.13
2022-08-09T00:18:04.701Z,18.12
2022-08-09T00:20:23.138Z,18.11
2022-08-09T00:22:51.372Z,18.10
2022-08-09T00:25:23.178Z,18.09
2022-08-09T00:27:51.998Z,18.08
2022-08-09T00:30:25.124Z,18.06
2022-08-09T00:32:54.363Z,18.04
2022-08-09T00:35:24.174Z,18.03
2022-08-09T00:37:52.316Z,18.04
2022-08-09T00:40:21.972Z,18.04
2022-08-09T00:44:14.879Z,18.01
2022-08-09T00:45:50.415Z,17.99
2022-08-09T00:48:21.923Z,17.97
2022-08-09T00:50:52.398Z,17.96
2022-08-09T00:53:24.397Z,17.94
2022-08-09T00:56:05.280Z,17.93
2022-08-09T00:58:37.413Z,17.91
2022-08-09T01:01:22.257Z,17.89
2022-08-09T01:04:19.015Z,17.86
2022-08-09T01:07:38.051Z,17.84
2022-08-09T01:10:28.925Z,17.82
2022-08-09T01:13:22.195Z,17.80
2022-08-09T01:15:54.712Z,17.78
2022-08-09T01:18:31.396Z,17.76
2022-08-09T01:21:45.170Z,17.74
2022-08-09T01:24:35.240Z,17.72
2022-08-09T01:27:08.076Z,17.70
2022-08-09T01:29:56.176Z,17.68
2022-08-09T01:32:33.697Z,17.66
2022-08-09T01:35:28.968Z,17.64
2022-08-09T01:38:07.815Z,17.62
2022-08-09T01:40:52.536Z,17.59
2022-08-09T01:43:50.640Z,17.57
2022-08-09T01:46:26.761Z,17.55
2022-08-09T01:48:59.863Z,17.44
2022-08-09T01:51:33.457Z,17.43
2022-08-09T02:21:25.210Z,17.29
2022-08-09T02:24:00.205Z,17.26
2022-08-09T02:26:37.976Z,17.26
2022-08-09T02:29:27.236Z,17.24
2022-08-09T02:32:01.150Z,17.24
2022-08-09T02:34:41.476Z,17.23
2022-08-09T02:37:24.195Z,17.23
2022-08-09T02:40:10.670Z,17.22
2022-08-09T02:42:42.432Z,17.21
2022-08-09T02:45:16.232Z,17.21
2022-08-09T02:47:58.055Z,17.21
2022-08-09T02:50:38.534Z,17.22
2022-08-09T02:53:26.259Z,17.22
2022-08-09T02:55:58.742Z,17.20
2022-08-09T02:58:32.614Z,17.20
2022-08-09T03:01:07.877Z,17.20
2022-08-09T03:04:16.884Z,17.20
2022-08-09T03:06:30.713Z,17.19
2022-08-09T03:09:00.355Z,17.19
2022-08-09T03:12:10.791Z,17.20
2022-08-09T03:14:18.636Z,17.20
2022-08-09T03:16:50.011Z,17.19
2022-08-09T03:19:52.161Z,17.10
2022-08-09T03:22:12.142Z,17.18
2022-08-09T03:25:06.174Z,17.11
2022-08-09T03:27:48.807Z,17.17
2022-08-09T03:30:30.107Z,17.17
2022-08-09T03:33:16.983Z,17.19
2022-08-09T03:36:15.757Z,17.19
2022-08-09T03:38:43.484Z,17.20
2022-08-09T03:41:15.530Z,17.19
2022-08-09T03:43:51.850Z,17.20
2022-08-09T03:46:34.381Z,17.20
2022-08-09T03:49:08.757Z,17.12
2022-08-09T03:51:56.442Z,17.13
2022-08-09T03:54:31.172Z,17.22
2022-08-09T03:57:04.403Z,17.23
2022-08-09T03:59:54.811Z,17.26
2022-08-09T04:02:32.620Z,17.19
2022-08-09T04:05:06.746Z,17.29
2022-08-09T04:07:52.537Z,17.29
2022-08-09T04:10:29.273Z,17.31
2022-08-09T04:13:03.970Z,17.32
2022-08-09T04:15:52.392Z,17.32
2022-08-09T04:18:21.431Z,17.33
2022-08-09T04:20:51.234Z,17.35
2022-08-09T04:23:24.723Z,17.37
2022-08-09T04:25:54.799Z,17.37
2022-08-09T04:28:33.629Z,17.39
2022-08-09T04:31:09.817Z,17.40
2022-08-09T04:33:52.038Z,17.41
2022-08-09T04:36:24.451Z,17.41
2022-08-09T04:38:54.022Z,17.44
2022-08-09T04:41:24.316Z,17.46
2022-08-09T04:44:06.763Z,17.48
2022-08-09T04:46:59.089Z,17.50
2022-08-09T04:49:52.590Z,17.53
2022-08-09T04:52:27.322Z,17.56
2022-08-09T04:54:57.770Z,17.58
2022-08-09T04:57:58.970Z,17.61
2022-08-09T05:00:16.623Z,17.64
2022-08-09T05:02:51.900Z,17.67
2022-08-09T05:05:31.533Z,17.70
2022-08-09T05:08:14.015Z,17.74
2022-08-09T05:10:44.695Z,17.77
2022-08-09T05:13:14.251Z,17.79
2022-08-09T05:15:52.142Z,17.74
2022-08-09T05:18:39.320Z,17.85
2022-08-09T05:21:22.848Z,17.90
2022-08-09T05:24:00.620Z,17.93
2022-08-09T05:26:36.565Z,17.96
2022-08-09T05:29:21.483Z,18.00
2022-08-09T05:31:56.805Z,18.02
2022-08-09T05:34:30.815Z,18.06
2022-08-09T05:37:05.004Z,18.02
2022-08-09T05:39:43.831Z,18.12
2022-08-09T05:42:17.330Z,18.16
2022-08-09T05:47:40.810Z,18.24
2022-08-09T05:50:39.875Z,18.28
2022-08-09T05:53:21.710Z,18.33
2022-08-09T05:56:01.575Z,18.39
2022-08-09T05:58:29.636Z,18.42
2022-08-09T06:00:58.541Z,18.46
2022-08-09T06:03:34.849Z,18.50
2022-08-09T06:06:12.138Z,18.54
2022-08-09T06:08:40.314Z,18.58
2022-08-09T06:11:16.441Z,18.61
2022-08-09T06:13:47.534Z,18.65
2022-08-09T06:16:16.275Z,18.67
2022-08-09T06:18:44.365Z,18.69
2022-08-09T06:21:12.646Z,18.72
2022-08-09T06:23:57.192Z,18.75
2022-08-09T06:26:29.044Z,18.76
2022-08-09T06:29:00.525Z,18.82
2022-08-09T06:31:40.265Z,18.86
2022-08-09T06:34:18.992Z,18.90
2022-08-09T06:36:47.273Z,18.93
2022-08-09T06:39:16.797Z,18.96
2022-08-09T06:42:07.854Z,19.00
2022-08-09T06:44:32.859Z,19.05
2022-08-09T06:47:01.532Z,19.10
2022-08-09T06:50:11.382Z,19.16
2022-08-09T06:52:18.558Z,19.21
2022-08-09T06:54:51.459Z,19.25
2022-08-09T06:57:25.781Z,19.28
2022-08-09T07:00:51.796Z,19.32
2022-08-09T07:02:59.999Z,19.36
2022-08-09T07:06:02.398Z,19.41
2022-08-09T07:08:16.838Z,19.45
2022-08-09T07:10:46.777Z,19.49
2022-08-09T07:13:27.741Z,19.54
2022-08-09T07:16:39.152Z,19.60
2022-08-09T07:18:47.534Z,19.66
2022-08-09T07:21:18.782Z,19.69
2022-08-09T07:23:57.923Z,19.72
2022-08-09T07:26:26.592Z,19.75
2022-08-09T07:29:09.023Z,19.77
2022-08-09T07:31:45.485Z,19.79
2022-08-09T07:34:20.242Z,19.83
2022-08-09T07:36:49.992Z,19.79
2022-08-09T07:39:20.488Z,19.92
2022-08-09T07:42:07.165Z,19.97
2022-08-09T07:44:50.959Z,20.04
2022-08-09T07:47:23.464Z,20.11
2022-08-09T07:50:08.381Z,20.19
2022-08-09T07:52:38.503Z,20.28
2022-08-09T07:55:08.866Z,20.35
2022-08-09T07:57:46.809Z,20.38
2022-08-09T08:00:20.265Z,20.51
2022-08-09T08:03:04.691Z,20.58
2022-08-09T08:05:54.256Z,20.57
2022-08-09T08:09:01.539Z,20.73
2022-08-09T08:12:09.059Z,20.79
2022-08-09T08:13:57.726Z,20.86
2022-08-09T08:16:31.502Z,20.91
2022-08-09T08:19:02.898Z,20.98
2022-08-09T08:21:32.290Z,21.03
2022-08-09T08:24:00.914Z,21.07
2022-08-09T08:26:55.235Z,21.12
2022-08-09T08:29:20.373Z,21.15
2022-08-09T08:32:03.926Z,21.17
2022-08-09T08:34:34.901Z,21.20
2022-08-09T08:37:05.450Z,21.25
2022-08-09T08:39:39.201Z,21.29
2022-08-09T08:42:14.451Z,21.19
2022-08-09T08:44:44.745Z,21.38
2022-08-09T08:47:16.003Z,21.44
2022-08-09T08:49:47.916Z,21.49
2022-08-09T08:55:08.581Z,21.59
2022-08-09T08:57:37.918Z,21.61
2022-08-09T09:00:16.819Z,21.64
2022-08-09T09:02:53.505Z,21.67
2022-08-09T09:05:33.161Z,21.70
2022-08-09T09:08:30.121Z,21.75
2022-08-09T09:11:03.232Z,21.78
2022-08-09T09:13:47.318Z,21.80
2022-08-09T09:16:31.241Z,21.83
2022-08-09T09:19:22.537Z,21.86
2022-08-09T09:22:17.055Z,21.90
2022-08-09T09:26:02.450Z,21.94
2022-08-09T09:28:06.087Z,21.98
2022-08-09T09:30:41.208Z,22.01
2022-08-09T09:33:17.858Z,22.03
2022-08-09T09:36:11.799Z,22.03
2022-08-09T09:38:50.847Z,22.04
2022-08-09T09:41:32.581Z,22.03
2022-08-09T09:44:12.989Z,22.02
2022-08-09T09:46:50.858Z,21.98
2022-08-09T09:49:31.663Z,22.00
2022-08-09T09:52:36.604Z,22.00
2022-08-09T09:55:16.586Z,22.01
2022-08-09T09:58:02.278Z,22.00
2022-08-09T10:00:33.602Z,22.00
2022-08-09T10:03:11.434Z,21.98
2022-08-09T10:06:04.499Z,21.94
2022-08-09T10:08:54.827Z,21.93
2022-08-09T10:11:59.573Z,21.91
2022-08-09T10:14:33.628Z,21.92
2022-08-09T10:17:38.849Z,21.91
2022-08-09T10:20:02.116Z,21.89
2022-08-09T10:22:36.645Z,21.91
2022-08-09T10:25:12.419Z,21.91
2022-08-09T10:27:56.355Z,21.93
2022-08-09T10:34:07.986Z,22.00
2022-08-09T10:36:09.698Z,22.03
2022-08-09T10:38:56.383Z,22.06
2022-08-09T10:41:25.879Z,22.10
2022-08-09T10:44:01.298Z,22.13
2022-08-09T10:47:18.363Z,22.17
2022-08-09T10:50:14.961Z,22.20
2022-08-09T10:53:10.364Z,22.24
2022-08-09T10:55:55.356Z,22.26
2022-08-09T10:58:35.009Z,22.30
2022-08-09T11:03:07.316Z,22.33
2022-08-09T11:04:19.427Z,22.36
2022-08-09T11:07:01.110Z,22.42
2022-08-09T11:09:38.566Z,22.45
2022-08-09T11:12:11.597Z,22.45
2022-08-09T11:14:44.774Z,22.54
2022-08-09T11:17:15.095Z,22.58
2022-08-09T11:20:11.571Z,22.62
2022-08-09T11:22:40.571Z,22.66
2022-08-09T11:25:14.579Z,22.71
2022-08-09T11:28:09.165Z,22.77
2022-08-09T11:30:47.929Z,22.77
2022-08-09T11:33:22.255Z,22.82
2022-08-09T11:35:53.373Z,22.89
2022-08-09T11:38:32.580Z,22.81
2022-08-09T11:41:37.669Z,22.96
2022-08-09T11:44:06.722Z,22.98
2022-08-09T11:47:03.679Z,22.99
2022-08-09T11:49:58.289Z,23.07
2022-08-09T11:53:58.759Z,23.15
2022-08-09T11:56:02.195Z,23.28
2022-08-09T11:58:33.605Z,23.38
2022-08-09T12:01:37.575Z,23.47
2022-08-09T12:04:05.724Z,23.54
2022-08-09T12:06:35.548Z,23.57
2022-08-09T12:09:19.150Z,23.59
2022-08-09T12:12:03.261Z,23.60
2022-08-09T12:15:04.126Z,23.61
2022-08-09T12:17:34.035Z,23.64
2022-08-09T12:20:16.749Z,23.70
2022-08-09T12:22:56.646Z,23.75
2022-08-09T12:25:36.977Z,23.76
2022-08-09T12:29:14.241Z,23.76
2022-08-09T12:31:59.244Z,23.76
2022-08-09T12:34:15.105Z,23.74
2022-08-09T12:36:58.912Z,23.74
2022-08-09T12:39:42.102Z,23.79
2022-08-09T12:42:26.164Z,23.84
2022-08-09T12:44:56.341Z,23.90
2022-08-09T12:47:28.536Z,23.99
2022-08-09T12:50:17.432Z,24.04
2022-08-09T12:53:08.442Z,24.08
2022-08-09T12:56:15.384Z,24.12
2022-08-09T12:58:28.099Z,24.17
2022-08-09T13:00:57.701Z,24.22
2022-08-09T13:03:57.108Z,24.27
2022-08-09T13:06:34.870Z,24.33
2022-08-09T13:09:06.183Z,24.40
2022-08-09T13:11:42.378Z,24.46
2022-08-09T13:14:42.654Z,24.52
2022-08-09T13:17:03.980Z,24.54
2022-08-09T13:20:09.445Z,24.57
2022-08-09T13:22:45.712Z,24.60
2022-08-09T13:25:15.166Z,24.57
2022-08-09T13:27:48.709Z,24.57
2022-08-09T13:30:50.155Z,24.56
2022-08-09T13:33:52.923Z,24.59
2022-08-09T13:36:38.769Z,24.65
2022-08-09T13:39:08.217Z,24.65
2022-08-09T13:41:57.741Z,24.61
2022-08-09T13:44:28.862Z,24.59
2022-08-09T13:47:29.091Z,24.60
2022-08-09T13:49:57.158Z,24.62
2022-08-09T13:55:17.747Z,24.71
2022-08-09T13:57:56.252Z,24.68
2022-08-09T14:00:28.837Z,24.77
2022-08-09T14:03:57.917Z,24.77
2022-08-09T14:05:59.644Z,24.69
2022-08-09T14:08:31.604Z,24.73
2022-08-09T14:11:09.802Z,24.70
2022-08-09T14:14:23.033Z,24.71
2022-08-09T14:16:32.325Z,24.75
2022-08-09T14:19:03.005Z,24.78
2022-08-09T14:21:31.823Z,24.78
2022-08-09T14:24:05.717Z,24.78
2022-08-09T14:26:38.726Z,24.75
2022-08-09T14:29:25.601Z,24.63
2022-08-09T14:31:58.883Z,24.68
2022-08-09T14:34:41.048Z,24.67
2022-08-09T14:37:10.219Z,24.71
2022-08-09T14:39:46.725Z,24.76
2022-08-09T14:42:30.469Z,24.82
2022-08-09T14:46:39.171Z,24.88
2022-08-09T14:47:58.102Z,24.76
2022-08-09T14:50:30.894Z,24.93
2022-08-09T14:53:10.972Z,24.87
2022-08-09T14:55:50.217Z,24.98
2022-08-09T14:58:19.729Z,24.94
2022-08-09T15:00:50.906Z,24.93
2022-08-09T15:03:21.023Z,24.89
2022-08-09T15:05:51.264Z,24.81
2022-08-09T15:08:25.045Z,24.72
2022-08-09T15:11:00.268Z,24.61
2022-08-09T15:13:56.511Z,24.51
2022-08-09T15:16:18.340Z,24.35
2022-08-09T15:18:49.456Z,24.38
2022-08-09T15:21:58.456Z,24.36
2022-08-09T15:24:12.970Z,24.34
2022-08-09T15:26:46.492Z,24.30
2022-08-09T15:30:48.861Z,24.24
2022-08-09T15:32:05.177Z,24.21
2022-08-09T15:34:54.048Z,24.17
2022-08-09T15:37:56.682Z,24.13
2022-08-09T15:40:32.271Z,24.08
2022-08-09T15:43:01.806Z,24.05
2022-08-09T15:45:52.068Z,24.01
2022-08-09T15:48:29.192Z,23.92
2022-08-09T15:51:02.705Z,23.98
2022-08-09T15:54:03.928Z,23.95
2022-08-09T15:56:38.041Z,23.90
2022-08-09T15:59:05.910Z,23.86
2022-08-09T16:01:35.761Z,23.84
2022-08-09T16:04:04.218Z,23.85
2022-08-09T16:06:35.147Z,23.85
2022-08-09T16:09:10.229Z,23.85
2022-08-09T16:11:38.302Z,23.82
2022-08-09T16:14:08.954Z,23.79
2022-08-09T16:16:41.973Z,23.74
2022-08-09T16:19:13.929Z,23.72
2022-08-09T16:21:48.543Z,23.69
2022-08-09T16:24:32.919Z,23.64
2022-08-09T16:27:05.035Z,23.57
2022-08-09T16:29:37.050Z,23.51
2022-08-09T16:32:19.328Z,23.45
2022-08-09T16:34:58.175Z,23.39
2022-08-09T16:37:55.574Z,23.32
2022-08-09T16:40:29.768Z,23.25
2022-08-09T16:43:06.300Z,23.18
2022-08-09T16:45:34.354Z,23.12
2022-08-09T16:48:41.092Z,23.06
2022-08-09T16:50:59.723Z,23.00
2022-08-09T16:53:37.501Z,22.94
2022-08-09T16:56:10.449Z,22.89
2022-08-09T16:58:49.711Z,22.83
2022-08-09T17:01:19.489Z,22.76
2022-08-09T17:03:53.759Z,22.70
2022-08-09T17:06:29.301Z,22.64
2022-08-09T17:09:44.555Z,22.58
2022-08-09T17:11:51.422Z,22.52
2022-08-09T17:14:39.442Z,22.41
2022-08-09T17:17:26.651Z,22.32
2022-08-09T17:20:28.139Z,22.25
2022-08-09T17:22:52.528Z,22.18
2022-08-09T17:25:22.176Z,22.11
2022-08-09T17:27:54.503Z,22.04
2022-08-09T17:30:28.088Z,21.97
2022-08-09T17:33:05.566Z,21.90
2022-08-09T17:36:00.847Z,21.82
2022-08-09T17:38:34.257Z,21.74
2022-08-09T17:41:10.025Z,21.61
2022-08-09T17:43:38.710Z,21.59
2022-08-09T17:46:09.105Z,21.53
2022-08-09T17:48:40.403Z,21.39
2022-08-09T17:51:18.380Z,21.38
2022-08-09T17:53:53.308Z,21.21
2022-08-09T17:56:35.496Z,21.22
2022-08-09T17:59:08.860Z,21.16
2022-08-09T18:02:03.654Z,21.07
2022-08-09T18:04:25.894Z,20.99
2022-08-09T18:06:55.187Z,20.90
2022-08-09T18:09:40.282Z,20.80
2022-08-09T18:12:20.204Z,20.70
2022-08-09T18:14:53.816Z,20.60
2022-08-09T18:18:02.304Z,20.51
2022-08-09T18:20:56.590Z,20.39
2022-08-09T18:23:07.179Z,20.31
2022-08-09T18:25:52.868Z,20.22
2022-08-09T18:31:55.111Z,20.01
2022-08-09T18:34:34.593Z,19.91
2022-08-09T18:37:47.312Z,19.83
2022-08-09T18:40:08.142Z,19.74
2022-08-09T18:42:37.933Z,19.66
2022-08-09T18:46:45.038Z,19.58
2022-08-09T18:47:59.622Z,19.48
2022-08-09T18:50:33.670Z,19.41
2022-08-09T18:53:01.976Z,19.33
2022-08-09T18:55:56.407Z,19.25
2022-08-09T18:58:31.961Z,19.18
2022-08-09T19:01:01.325Z,19.10
2022-08-09T19:03:30.660Z,19.02
2022-08-09T19:06:18.846Z,18.94
2022-08-09T19:08:54.865Z,18.87
2022-08-09T19:11:37.348Z,18.79
2022-08-09T19:14:09.573Z,18.72
2022-08-09T19:16:38.707Z,18.65
2022-08-09T19:19:25.042Z,18.58
2022-08-09T19:22:04.554Z,18.50
2022-08-09T19:25:07.644Z,18.44
2022-08-09T19:27:28.386Z,18.38
2022-08-09T19:30:23.075Z,18.31
2022-08-09T19:32:53.774Z,18.25
2022-08-09T19:35:26.565Z,18.19
2022-08-09T19:37:57.727Z,18.14
2022-08-09T19:40:34.326Z,18.10
2022-08-09T19:43:10.265Z,18.05
2022-08-09T19:45:45.025Z,18.01
2022-08-09T19:48:15.446Z,17.88
2022-08-09T19:51:04.021Z,17.91
2022-08-09T19:53:37.099Z,17.90
2022-08-09T19:56:16.003Z,17.83
2022-08-09T19:58:56.493Z,17.91
2022-08-09T20:02:03.255Z,17.82
2022-08-09T20:04:36.346Z,17.90
2022-08-09T20:07:08.326Z,17.88
2022-08-09T20:09:45.223Z,17.85
2022-08-09T20:12:37.476Z,17.75
2022-08-09T20:16:33.522Z,17.80
2022-08-09T20:18:04.205Z,17.76
2022-08-09T20:20:38.604Z,17.70
2022-08-09T20:23:07.652Z,17.66
2022-08-09T20:25:49.512Z,17.61
2022-08-09T20:28:27.907Z,17.56
2022-08-09T20:31:05.599Z,17.49
2022-08-09T20:33:44.020Z,17.44
2022-08-09T20:36:13.121Z,17.39
2022-08-09T20:39:28.059Z,17.33
2022-08-09T20:41:39.836Z,17.28
2022-08-09T20:44:10.492Z,17.23
2022-08-09T20:46:42.957Z,17.21
2022-08-09T20:49:15.763Z,17.18
2022-08-09T20:51:50.381Z,17.15
2022-08-09T20:54:21.450Z,17.11
2022-08-09T20:56:53.602Z,17.07
2022-08-09T20:59:50.143Z,17.03
2022-08-09T21:02:17.526Z,16.91
2022-08-09T21:05:54.869Z,16.95
2022-08-09T21:07:38.802Z,16.90
2022-08-09T21:10:10.891Z,16.87
2022-08-09T21:12:39.673Z,16.84
2022-08-09T21:15:12.384Z,16.80
2022-08-09T21:18:25.553Z,16.78
2022-08-09T21:20:31.217Z,16.67
2022-08-09T21:23:00.955Z,16.72
2022-08-09T21:25:55.318Z,16.67
2022-08-09T21:28:34.872Z,16.63
2022-08-09T21:31:16.830Z,16.58
2022-08-09T21:33:50.568Z,16.54
2022-08-09T21:36:28.782Z,16.50
2022-08-09T21:39:17.159Z,16.46
2022-08-09T21:42:03.631Z,16.44
2022-08-09T21:44:38.230Z,16.42
2022-08-09T21:47:11.544Z,16.38
2022-08-09T21:49:48.331Z,16.36
2022-08-09T21:52:20.564Z,16.36
2022-08-09T21:54:59.252Z,16.34
2022-08-09T21:57:59.674Z,16.33
2022-08-09T22:00:34.534Z,16.32
2022-08-09T22:03:19.665Z,16.30
2022-08-09T22:05:55.180Z,16.27
2022-08-09T22:08:26.125Z,16.25
2022-08-09T22:11:50.259Z,16.16
2022-08-09T22:13:44.895Z,16.21
2022-08-09T22:16:13.128Z,16.17
2022-08-09T22:18:53.180Z,16.15
2022-08-09T22:21:50.032Z,16.04
2022-08-09T22:24:16.890Z,16.09
2022-08-09T22:26:51.683Z,16.06
2022-08-09T22:29:28.901Z,16.04
2022-08-09T22:32:02.716Z,16.01
2022-08-09T22:34:30.587Z,15.99
2022-08-09T22:36:59.582Z,15.96
2022-08-09T22:39:55.951Z,15.94
2022-08-09T22:42:21.954Z,15.91
2022-08-09T22:48:04.735Z,15.88
2022-08-09T22:48:13.939Z,15.83
2022-08-09T22:50:32.293Z,15.76
2022-08-09T22:53:03.850Z,15.76
2022-08-09T22:56:06.395Z,15.74
2022-08-09T22:58:32.413Z,15.72
2022-08-09T23:01:06.099Z,15.70
2022-08-09T23:04:03.554Z,15.67
2022-08-09T23:06:34.891Z,15.63
2022-08-09T23:09:06.453Z,15.61
2022-08-09T23:11:34.870Z,15.57
2022-08-09T23:14:03.793Z,15.53
2022-08-09T23:16:32.220Z,15.50
2022-08-09T23:19:01.074Z,15.46
2022-08-09T23:21:33.628Z,15.43
2022-08-09T23:24:05.995Z,15.40
2022-08-09T23:26:39.203Z,15.37
2022-08-09T23:29:11.773Z,15.37
2022-08-09T23:31:40.985Z,15.37
2022-08-09T23:34:09.609Z,15.36
2022-08-09T23:36:37.803Z,15.34
2022-08-09T23:39:07.846Z,15.28
2022-08-09T23:41:36.663Z,15.26
2022-08-09T23:44:05.008Z,15.23
2022-08-09T23:46:33.534Z,15.21
2022-08-09T23:49:02.155Z,15.18
2022-08-09T23:51:30.190Z,15.15
2022-08-09T23:54:02.435Z,15.13
2022-08-09T23:56:52.422Z,15.11
2022-08-09T23:59:24.473Z,15.08
